Terminal Aerodrome Forecast
Issued by NWS Cleveland, OH

Home | Current Version | Previous Version | Graphics & Text | Print | Product List | Glossary On
Versions: 1 2 3 4 5 6 7 8 9 10 11 12 13 14 15 16 17 18 19 20 21 22 23 24 25 26 27 28 29 30 31 32
150
FTUS41 KCLE 160900 AAB
TAFCLE
TAF AMD
KCLE 160900Z 1609/1712 VRB03KT 5SM BR OVC200
     FM161500 12005KT P6SM BKN050 OVC100
     FM170100 09005KT 5SM BR VCSH SCT008 OVC015
     FM170500 13008KT 4SM -RA BR OVC008=

USA.gov is the U.S. government's official web portal to all federal, state and local government web resources and services.